Greenville Spartanburg International Airport Greenville US
ICAO: KGSP
IATA: GSP
Category: Large
Scheduled Services: Yes

Elevation: 964 ft
TransAlt. 18000 ft.

Airport Communications:
GREER APP/DEP:120.6
ATIS:134.25
CTAF:120.1
GREER GND:121.9
GREER TWR:120.1
UNICOM:122.95

KGSP Zoom In..

Runways:

(A) RW 04 length 11001 ft width 150 ft
ILS 109.30 / hdg 38

(B) RW 22 length 11001 ft width 150 ft
ILS 110.70 / hdg 218

Location; KGSP
Day. 17 / Time. 07.40 Zulu
* Altimeter: 30.01
* Temperature: 1/° c. 33.8°f.
* Wind from: 140° Speed 03 kn.
Dewpoint: V2° c.
Visibility: 2 Statute Miles.
Clouds: Overcast 200 ft.
Conditions: Mist.

KGSP 170740Z AUTO 14003KT 2SM BR OVC002 22/22 A3001 RMK AO2 VIS 1 1/2V2 1/2 T02220222


Wind From 140°
Speed 03 kn.

 
 
jpsmedia.com for Web Design worldairports.se 2018   terms of use